createdAt,value
2019-06-27T00:00:42.831Z,0
2019-06-27T00:01:52.794Z,0
2019-06-27T00:03:02.751Z,0
2019-06-27T00:04:12.218Z,0
2019-06-27T00:05:22.175Z,0
2019-06-27T00:06:32.143Z,0
2019-06-27T00:07:42.106Z,0
2019-06-27T00:08:51.321Z,0
2019-06-27T00:10:01.278Z,0
2019-06-27T00:11:11.081Z,0
2019-06-27T00:12:20.802Z,0
2019-06-27T00:13:30.532Z,0
2019-06-27T00:14:40.265Z,0
2019-06-27T00:15:50.239Z,0
2019-06-27T00:17:00.189Z,0
2019-06-27T00:18:10.239Z,0
2019-06-27T00:19:19.949Z,0
2019-06-27T00:20:29.672Z,0
2019-06-27T00:21:39.370Z,0
2019-06-27T00:22:49.075Z,0
2019-06-27T00:23:59.021Z,0
2019-06-27T00:25:09.197Z,0
2019-06-27T00:26:19.161Z,0
2019-06-27T00:27:28.927Z,0
2019-06-27T00:28:38.895Z,0
2019-06-27T00:29:48.853Z,0
2019-06-27T00:30:58.548Z,0
2019-06-27T00:32:08.512Z,0
2019-06-27T00:33:18.219Z,0
2019-06-27T00:34:27.932Z,0
2019-06-27T00:35:37.407Z,0
2019-06-27T00:36:47.394Z,0
2019-06-27T00:37:57.094Z,0
2019-06-27T00:39:06.816Z,0
2019-06-27T00:40:16.523Z,0
2019-06-27T00:41:26.242Z,0
2019-06-27T00:42:36.205Z,0
2019-06-27T00:43:46.165Z,0
2019-06-27T00:44:56.141Z,0
2019-06-27T00:46:05.936Z,0
2019-06-27T00:47:15.637Z,0
2019-06-27T00:48:25.595Z,0
2019-06-27T00:49:35.547Z,0
2019-06-27T00:50:45.255Z,0
2019-06-27T00:51:54.967Z,0
2019-06-27T00:53:04.685Z,0
2019-06-27T00:54:14.385Z,0
2019-06-27T00:55:24.099Z,0
2019-06-27T00:56:34.067Z,0
2019-06-27T00:57:44.067Z,0
2019-06-27T00:58:54.033Z,0
2019-06-27T01:00:04.240Z,0
2019-06-27T01:01:13.954Z,0
2019-06-27T01:02:23.911Z,0
2019-06-27T01:03:33.857Z,0
2019-06-27T01:04:43.815Z,0
2019-06-27T01:05:53.793Z,0
2019-06-27T01:07:03.771Z,0
2019-06-27T01:08:13.482Z,0
2019-06-27T01:09:23.489Z,0
2019-06-27T01:10:33.197Z,0
2019-06-27T01:11:43.154Z,0
2019-06-27T01:12:52.609Z,0
2019-06-27T01:14:02.087Z,0
2019-06-27T01:15:11.819Z,0
2019-06-27T01:16:21.798Z,0
2019-06-27T01:17:31.533Z,0
2019-06-27T01:18:41.443Z,0
2019-06-27T01:19:51.148Z,0
2019-06-27T01:21:01.120Z,0
2019-06-27T01:22:10.811Z,0
2019-06-27T01:23:19.834Z,0
2019-06-27T01:24:29.547Z,0
2019-06-27T01:25:39.260Z,0
2019-06-27T01:26:49.209Z,0
2019-06-27T01:27:59.175Z,0
2019-06-27T01:29:09.266Z,0
2019-06-27T01:30:18.962Z,0
2019-06-27T01:31:28.691Z,0
2019-06-27T01:32:38.657Z,0
2019-06-27T01:33:48.375Z,0
2019-06-27T01:34:58.088Z,0
2019-06-27T01:36:11.920Z,0
2019-06-27T01:37:21.879Z,0
2019-06-27T01:38:31.850Z,0
2019-06-27T01:39:41.552Z,0
2019-06-27T01:40:51.572Z,0
2019-06-27T01:42:01.365Z,0
2019-06-27T01:43:11.335Z,0
2019-06-27T01:44:21.304Z,0
2019-06-27T01:45:31.280Z,0
2019-06-27T01:46:41.273Z,0
2019-06-27T01:47:51.257Z,0
2019-06-27T01:49:00.998Z,0
2019-06-27T01:50:10.947Z,0
2019-06-27T01:51:20.898Z,0
2019-06-27T01:52:30.870Z,0
2019-06-27T01:53:40.576Z,0
2019-06-27T01:54:50.556Z,0
2019-06-27T01:56:00.251Z,0
2019-06-27T01:57:10.227Z,0
2019-06-27T01:58:19.934Z,0
2019-06-27T01:59:29.898Z,0
2019-06-27T02:00:39.496Z,0
2019-06-27T02:01:49.457Z,0
2019-06-27T02:02:59.461Z,4
2019-06-27T02:04:09.182Z,4
2019-06-27T02:05:19.151Z,0
2019-06-27T02:06:28.939Z,4
2019-06-27T02:07:38.762Z,4
2019-06-27T02:08:48.533Z,4
2019-06-27T02:09:58.496Z,4
2019-06-27T02:11:07.944Z,4
2019-06-27T02:12:17.891Z,4
2019-06-27T02:13:27.887Z,8
2019-06-27T02:14:37.610Z,8
2019-06-27T02:15:47.338Z,12
2019-06-27T02:16:57.319Z,12
2019-06-27T02:18:07.011Z,16
2019-06-27T02:19:16.963Z,16
2019-06-27T02:20:26.667Z,20
2019-06-27T02:21:36.131Z,20
2019-06-27T02:22:46.082Z,24
2019-06-27T02:23:55.797Z,28
2019-06-27T02:25:05.263Z,32
2019-06-27T02:26:15.004Z,36
2019-06-27T02:27:24.964Z,40
2019-06-27T02:28:34.923Z,48
2019-06-27T02:29:44.638Z,52
2019-06-27T02:30:54.446Z,64
2019-06-27T02:32:04.422Z,68
2019-06-27T02:33:14.444Z,76
2019-06-27T02:34:24.173Z,92
2019-06-27T02:35:34.188Z,100
2019-06-27T02:36:43.938Z,112
2019-06-27T02:37:53.452Z,124
2019-06-27T02:39:03.426Z,140
2019-06-27T02:40:13.179Z,156
2019-06-27T02:41:22.914Z,180
2019-06-27T02:42:32.891Z,200
2019-06-27T02:43:42.629Z,220
2019-06-27T02:44:52.628Z,240
2019-06-27T02:46:02.590Z,268
2019-06-27T02:47:12.643Z,296
2019-06-27T02:48:22.368Z,324
2019-06-27T02:49:32.161Z,356
2019-06-27T02:50:41.900Z,392
2019-06-27T02:51:51.670Z,428
2019-06-27T02:53:01.683Z,472
2019-06-27T02:54:11.415Z,520
2019-06-27T02:55:21.162Z,572
2019-06-27T02:56:30.683Z,608
2019-06-27T02:57:40.665Z,636
2019-06-27T02:58:50.634Z,664
2019-06-27T03:00:00.631Z,700
2019-06-27T03:01:10.369Z,744
2019-06-27T03:02:20.337Z,780
2019-06-27T03:03:29.792Z,812
2019-06-27T03:04:39.786Z,860
2019-06-27T03:05:49.767Z,904
2019-06-27T03:06:59.793Z,940
2019-06-27T03:08:09.772Z,984
2019-06-27T03:09:19.743Z,1024
2019-06-27T03:10:29.495Z,1076
2019-06-27T03:11:39.475Z,1132
2019-06-27T03:12:49.210Z,1180
2019-06-27T03:13:58.917Z,1224
2019-06-27T03:15:08.669Z,1256
2019-06-27T03:16:18.387Z,1276
2019-06-27T03:17:27.848Z,1292
2019-06-27T03:18:37.568Z,1308
2019-06-27T03:19:47.528Z,1360
2019-06-27T03:20:57.552Z,1408
2019-06-27T03:22:12.557Z,1448
2019-06-27T03:23:22.024Z,1488
2019-06-27T03:24:32.005Z,1512
2019-06-27T03:25:41.723Z,1516
2019-06-27T03:26:51.685Z,1540
2019-06-27T03:28:01.656Z,1552
2019-06-27T03:29:11.130Z,1496
2019-06-27T03:30:21.147Z,1436
2019-06-27T03:31:31.226Z,1404
2019-06-27T03:32:41.101Z,1396
2019-06-27T03:33:51.168Z,1376
2019-06-27T03:35:01.174Z,1368
2019-06-27T03:36:11.434Z,1432
2019-06-27T03:37:21.484Z,1476
2019-06-27T03:38:31.452Z,1500
2019-06-27T03:39:41.179Z,1484
2019-06-27T03:40:50.940Z,1520
2019-06-27T03:42:00.420Z,1556
2019-06-27T03:43:10.163Z,1628
2019-06-27T03:44:19.633Z,1764
2019-06-27T03:45:29.360Z,1884
2019-06-27T03:46:39.333Z,1964
2019-06-27T03:47:49.341Z,1992
2019-06-27T03:48:59.370Z,2088
2019-06-27T03:50:09.433Z,2100
2019-06-27T03:51:19.413Z,2136
2019-06-27T03:52:29.425Z,2236
2019-06-27T03:53:39.391Z,2388
2019-06-27T03:54:49.373Z,2540
2019-06-27T03:55:59.082Z,2644
2019-06-27T03:57:08.791Z,2848
2019-06-27T03:58:18.789Z,3068
2019-06-27T03:59:28.776Z,3300
2019-06-27T04:00:38.751Z,3460
2019-06-27T04:01:48.737Z,3408
2019-06-27T04:02:58.762Z,3348
2019-06-27T04:04:08.755Z,3352
2019-06-27T04:05:18.484Z,3492
2019-06-27T04:06:28.499Z,3712
2019-06-27T04:07:38.227Z,3896
2019-06-27T04:08:47.946Z,3952
2019-06-27T04:09:57.660Z,4004
2019-06-27T04:11:07.164Z,3884
2019-06-27T04:12:17.136Z,3780
2019-06-27T04:13:27.145Z,3904
2019-06-27T04:14:36.892Z,4032
2019-06-27T04:15:46.905Z,4084
2019-06-27T04:16:56.979Z,4240
2019-06-27T04:18:06.964Z,4348
2019-06-27T04:19:16.791Z,4400
2019-06-27T04:20:26.763Z,4588
2019-06-27T04:21:36.755Z,4548
2019-06-27T04:22:46.709Z,4756
2019-06-27T04:23:56.704Z,4964
2019-06-27T04:25:06.430Z,4940
2019-06-27T04:26:16.162Z,4564
2019-06-27T04:27:26.124Z,4484
2019-06-27T04:28:36.101Z,4672
2019-06-27T04:29:46.070Z,4756
2019-06-27T04:30:55.826Z,4812
2019-06-27T04:32:05.828Z,4928
2019-06-27T04:33:15.839Z,5148
2019-06-27T04:34:27.476Z,4968
2019-06-27T04:35:36.942Z,5196
2019-06-27T04:36:46.913Z,5224
2019-06-27T04:37:56.918Z,5292
2019-06-27T04:39:06.400Z,5160
2019-06-27T04:40:16.386Z,5240
2019-06-27T04:41:26.361Z,5404
2019-06-27T04:42:36.326Z,5492
2019-06-27T04:43:46.073Z,5356
2019-06-27T04:44:56.089Z,5532
2019-06-27T04:46:05.799Z,5892
2019-06-27T04:47:15.504Z,6156
2019-06-27T04:48:25.458Z,6032
2019-06-27T04:49:35.231Z,6084
2019-06-27T04:50:45.238Z,6100
2019-06-27T04:51:55.283Z,5868
2019-06-27T04:53:04.754Z,5572
2019-06-27T04:54:14.469Z,5656
2019-06-27T04:55:23.939Z,5540
2019-06-27T04:56:33.677Z,5380
2019-06-27T04:57:43.431Z,5416
2019-06-27T04:58:53.602Z,5424
2019-06-27T05:00:03.338Z,5380
2019-06-27T05:01:13.311Z,5344
2019-06-27T05:02:23.284Z,5412
2019-06-27T05:03:37.561Z,5556
2019-06-27T05:04:47.528Z,5516
2019-06-27T05:05:57.234Z,5328
2019-06-27T05:07:07.292Z,5448
2019-06-27T05:08:21.527Z,5656
2019-06-27T05:09:31.581Z,5728
2019-06-27T05:10:41.556Z,5712
2019-06-27T05:11:51.264Z,5868
2019-06-27T05:13:01.245Z,6088
2019-06-27T05:14:10.743Z,6216
2019-06-27T05:15:20.457Z,6452
2019-06-27T05:16:30.173Z,6372
2019-06-27T05:17:40.166Z,6220
2019-06-27T05:18:49.885Z,5980
2019-06-27T05:20:02.999Z,5888
2019-06-27T05:21:13.247Z,6012
2019-06-27T05:22:23.207Z,6536
2019-06-27T05:23:33.157Z,6964
2019-06-27T05:24:43.181Z,7012
2019-06-27T05:25:53.174Z,6800
2019-06-27T05:27:02.650Z,6612
2019-06-27T05:28:12.107Z,6416
2019-06-27T05:29:22.069Z,6148
2019-06-27T05:30:32.043Z,5880
2019-06-27T05:31:41.806Z,5668
2019-06-27T05:32:51.784Z,5536
2019-06-27T05:34:01.774Z,5572
2019-06-27T05:35:11.765Z,5716
2019-06-27T05:36:21.480Z,5908
2019-06-27T05:37:31.423Z,5800
2019-06-27T05:38:41.106Z,5636
2019-06-27T05:39:51.141Z,5656
2019-06-27T05:41:00.593Z,5368
2019-06-27T05:42:10.553Z,5360
2019-06-27T05:43:20.248Z,5404
2019-06-27T05:44:29.742Z,5600
2019-06-27T05:45:39.737Z,5468
2019-06-27T05:46:49.463Z,5712
2019-06-27T05:47:59.439Z,5780
2019-06-27T05:49:09.407Z,5832
2019-06-27T05:50:19.368Z,5820
2019-06-27T05:51:29.451Z,5792
2019-06-27T05:52:39.181Z,5756
2019-06-27T05:53:52.877Z,5768
2019-06-27T05:55:02.861Z,5760
2019-06-27T05:56:12.821Z,5668
2019-06-27T05:57:22.547Z,5592
2019-06-27T05:58:32.646Z,5560
2019-06-27T05:59:42.672Z,5544
2019-06-27T06:00:52.485Z,5524
2019-06-27T06:02:02.458Z,5516
2019-06-27T06:03:12.429Z,5524
2019-06-27T06:04:26.394Z,5524
2019-06-27T06:05:36.354Z,5544
2019-06-27T06:06:46.062Z,5524
2019-06-27T06:07:56.020Z,5492
2019-06-27T06:09:05.975Z,5512
2019-06-27T06:10:15.949Z,5516
2019-06-27T06:11:25.972Z,5520
2019-06-27T06:12:35.711Z,5524
2019-06-27T06:13:45.701Z,5536
2019-06-27T06:14:55.665Z,5416
2019-06-27T06:16:08.029Z,5552
2019-06-27T06:17:18.000Z,5628
2019-06-27T06:18:27.948Z,5724
2019-06-27T06:19:37.658Z,5820
2019-06-27T06:20:47.394Z,5900
2019-06-27T06:21:57.625Z,5968
2019-06-27T06:23:07.330Z,6076
2019-06-27T06:24:17.053Z,6148
2019-06-27T06:25:26.836Z,5944
2019-06-27T06:26:36.787Z,6180
2019-06-27T06:27:46.510Z,6316
2019-06-27T06:28:56.495Z,6400
2019-06-27T06:30:06.246Z,6464
2019-06-27T06:31:16.277Z,6568
2019-06-27T06:32:25.998Z,6584
2019-06-27T06:33:35.768Z,6596
2019-06-27T06:34:45.474Z,6656
2019-06-27T06:35:55.437Z,6736
2019-06-27T06:37:07.977Z,6792
2019-06-27T06:38:18.302Z,6804
2019-06-27T06:39:27.892Z,6784
2019-06-27T06:40:37.608Z,6768
2019-06-27T06:41:47.578Z,6760
2019-06-27T06:43:04.043Z,6740
2019-06-27T06:44:14.099Z,6740
2019-06-27T06:45:24.070Z,6712
2019-06-27T06:46:34.035Z,6680
2019-06-27T06:47:44.013Z,6680
2019-06-27T06:48:53.733Z,6680
2019-06-27T06:50:03.719Z,6684
2019-06-27T06:51:13.458Z,6680
2019-06-27T06:52:23.496Z,6664
2019-06-27T06:53:33.214Z,6680
2019-06-27T06:54:43.166Z,6668
2019-06-27T06:55:52.879Z,6680
2019-06-27T06:57:02.727Z,6672
2019-06-27T06:58:12.741Z,6684
2019-06-27T06:59:22.741Z,6676
2019-06-27T07:00:32.802Z,6676
2019-06-27T07:01:45.560Z,6676
2019-06-27T07:02:55.511Z,6692
2019-06-27T07:04:05.504Z,6716
2019-06-27T07:05:15.467Z,6792
2019-06-27T07:06:25.714Z,6892
2019-06-27T07:07:35.692Z,6980
2019-06-27T07:08:45.436Z,6956
2019-06-27T07:09:55.388Z,6968
2019-06-27T07:11:05.407Z,7060
2019-06-27T07:12:15.134Z,7168
2019-06-27T07:13:25.189Z,7132
2019-06-27T07:14:34.894Z,7060
2019-06-27T07:15:44.639Z,7000
2019-06-27T07:16:54.673Z,6928
2019-06-27T07:18:04.402Z,6932
2019-06-27T07:19:14.364Z,6884
2019-06-27T07:20:24.379Z,6788
2019-06-27T07:21:34.378Z,6796
2019-06-27T07:22:44.319Z,6728
2019-06-27T07:23:54.458Z,6720
2019-06-27T07:25:04.576Z,6708
2019-06-27T07:26:14.300Z,6712
2019-06-27T07:27:24.293Z,6704
2019-06-27T07:28:33.767Z,6684
2019-06-27T07:29:43.766Z,6696
2019-06-27T07:30:53.765Z,6704
2019-06-27T07:32:03.477Z,6712
2019-06-27T07:33:17.074Z,6712
2019-06-27T07:34:27.049Z,6708
2019-06-27T07:35:36.776Z,6700
2019-06-27T07:36:46.498Z,6692
2019-06-27T07:37:56.510Z,6692
2019-06-27T07:39:06.693Z,6708
2019-06-27T07:40:16.411Z,6720
2019-06-27T07:41:26.436Z,6724
2019-06-27T07:42:36.177Z,6732
2019-06-27T07:43:45.906Z,6752
2019-06-27T07:44:55.895Z,6736
2019-06-27T07:46:05.879Z,6720
2019-06-27T07:47:32.264Z,6716
2019-06-27T07:48:42.030Z,6728
2019-06-27T07:49:51.974Z,6736
2019-06-27T07:51:01.930Z,6748
2019-06-27T07:52:11.641Z,6752
2019-06-27T07:53:21.346Z,6768
2019-06-27T07:54:31.071Z,6768
2019-06-27T07:55:41.142Z,6768
2019-06-27T07:56:53.526Z,6780
2019-06-27T07:58:03.499Z,6792
2019-06-27T07:59:13.467Z,6804
2019-06-27T08:00:23.472Z,6816
2019-06-27T08:01:42.561Z,6832
2019-06-27T08:02:52.472Z,6836
2019-06-27T08:04:02.206Z,6840
2019-06-27T08:05:12.305Z,6856
2019-06-27T08:06:22.008Z,6868
2019-06-27T08:07:31.734Z,6864
2019-06-27T08:08:41.697Z,6868
2019-06-27T08:09:51.426Z,6864
2019-06-27T08:11:01.200Z,6868
2019-06-27T08:12:11.162Z,6884
2019-06-27T08:13:21.168Z,6896
2019-06-27T08:14:31.276Z,6916
2019-06-27T08:15:41.238Z,6936
2019-06-27T08:16:51.312Z,6964
2019-06-27T08:18:01.300Z,7000
2019-06-27T08:19:11.034Z,7028
2019-06-27T08:20:20.766Z,7072
2019-06-27T08:21:30.733Z,7112
2019-06-27T08:22:40.738Z,7152
2019-06-27T08:23:50.707Z,7192
2019-06-27T08:25:00.683Z,7232
2019-06-27T08:26:10.660Z,7288
2019-06-27T08:27:20.388Z,7292
2019-06-27T08:28:30.106Z,7292
2019-06-27T08:29:40.182Z,7296
2019-06-27T08:30:50.174Z,7296
2019-06-27T08:31:59.893Z,7324
2019-06-27T08:33:09.996Z,7356
2019-06-27T08:34:19.959Z,7372
2019-06-27T08:35:33.331Z,7340
2019-06-27T08:36:43.666Z,7328
2019-06-27T08:37:53.809Z,7292
2019-06-27T08:39:03.613Z,7260
2019-06-27T08:40:13.559Z,7248
2019-06-27T08:41:23.547Z,7228
2019-06-27T08:42:33.270Z,7216
2019-06-27T08:43:42.988Z,7212
2019-06-27T08:44:52.976Z,7208
2019-06-27T08:46:02.740Z,7204
2019-06-27T08:47:12.753Z,7200
2019-06-27T08:48:22.456Z,7204
2019-06-27T08:49:32.187Z,7208
2019-06-27T08:50:41.911Z,7220
2019-06-27T08:51:51.654Z,7300
2019-06-27T08:53:03.916Z,7440
2019-06-27T08:54:13.953Z,7660
2019-06-27T08:55:23.228Z,8048
2019-06-27T08:56:32.988Z,8616
2019-06-27T08:57:42.999Z,9368
2019-06-27T08:58:53.015Z,10392
2019-06-27T09:00:02.984Z,11664
2019-06-27T09:01:12.821Z,12828
2019-06-27T09:02:22.816Z,13640
2019-06-27T09:03:32.532Z,14144
2019-06-27T09:04:42.534Z,14240
2019-06-27T09:05:52.563Z,14240
2019-06-27T09:07:02.294Z,14304
2019-06-27T09:08:11.752Z,14336
2019-06-27T09:09:21.752Z,14304
2019-06-27T09:10:31.481Z,14368
2019-06-27T09:11:45.445Z,14368
2019-06-27T09:12:55.469Z,14464
2019-06-27T09:14:05.221Z,14528
2019-06-27T09:15:15.175Z,14496
2019-06-27T09:16:25.266Z,14528
2019-06-27T09:17:35.256Z,14592
2019-06-27T09:18:45.275Z,14688
2019-06-27T09:19:55.002Z,14752
2019-06-27T09:21:05.030Z,14752
2019-06-27T09:22:15.029Z,14752
2019-06-27T09:23:24.683Z,14848
2019-06-27T09:24:34.433Z,14880
2019-06-27T09:25:44.498Z,14944
2019-06-27T09:26:54.236Z,15040
2019-06-27T09:28:04.218Z,15104
2019-06-27T09:29:13.928Z,15136
2019-06-27T09:30:23.893Z,15136
2019-06-27T09:31:33.862Z,15328
2019-06-27T09:32:43.587Z,15328
2019-06-27T09:33:53.343Z,15328
2019-06-27T09:35:03.298Z,15424
2019-06-27T09:36:13.275Z,15488
2019-06-27T09:37:22.749Z,15520
2019-06-27T09:38:32.733Z,15552
2019-06-27T09:39:42.697Z,15584
2019-06-27T09:40:52.422Z,15680
2019-06-27T09:42:02.382Z,15808
2019-06-27T09:43:12.339Z,15808
2019-06-27T09:44:21.894Z,15936
2019-06-27T09:45:31.689Z,16000
2019-06-27T09:46:41.807Z,16064
2019-06-27T09:47:51.756Z,16160
2019-06-27T09:49:01.731Z,16256
2019-06-27T09:50:11.716Z,16384
2019-06-27T09:51:21.466Z,16480
2019-06-27T09:52:31.199Z,16544
2019-06-27T09:53:41.153Z,16608
2019-06-27T09:54:50.878Z,16576
2019-06-27T09:56:00.823Z,16608
2019-06-27T09:57:10.612Z,16768
2019-06-27T09:58:20.570Z,16768
2019-06-27T09:59:30.328Z,16800
2019-06-27T10:00:40.298Z,16928
2019-06-27T10:01:50.256Z,16992
2019-06-27T10:03:00.471Z,17024
2019-06-27T10:04:10.448Z,17152
2019-06-27T10:05:20.445Z,17184
2019-06-27T10:06:33.432Z,17248
2019-06-27T10:07:43.238Z,17440
2019-06-27T10:08:53.231Z,17440
2019-06-27T10:10:03.227Z,17568
2019-06-27T10:11:12.969Z,17664
2019-06-27T10:12:22.827Z,17696
2019-06-27T10:13:48.523Z,17856
2019-06-27T10:14:58.509Z,17984
2019-06-27T10:16:08.513Z,18080
2019-06-27T10:17:18.495Z,18144
2019-06-27T10:18:28.286Z,18208
2019-06-27T10:19:38.077Z,18336
2019-06-27T10:20:48.060Z,18432
2019-06-27T10:21:58.088Z,18592
2019-06-27T10:23:07.870Z,18752
2019-06-27T10:24:17.590Z,18880
2019-06-27T10:25:27.860Z,18976
2019-06-27T10:26:37.592Z,19072
2019-06-27T10:27:47.564Z,19264
2019-06-27T10:28:57.549Z,19424
2019-06-27T10:30:07.735Z,19552
2019-06-27T10:31:17.654Z,19680
2019-06-27T10:32:27.386Z,19712
2019-06-27T10:33:37.097Z,19872
2019-06-27T10:34:47.065Z,19904
2019-06-27T10:35:57.045Z,20128
2019-06-27T10:37:06.806Z,20320
2019-06-27T10:38:16.591Z,20416
2019-06-27T10:39:26.550Z,20384
2019-06-27T10:40:36.524Z,20672
2019-06-27T10:41:46.261Z,20832
2019-06-27T10:42:56.266Z,21024
2019-06-27T10:44:06.229Z,21312
2019-06-27T10:45:16.200Z,21408
2019-06-27T10:46:25.651Z,21664
2019-06-27T10:47:35.175Z,21856
2019-06-27T10:48:44.637Z,21984
2019-06-27T10:49:54.717Z,22304
2019-06-27T10:51:05.317Z,22464
2019-06-27T10:52:15.276Z,22784
2019-06-27T10:53:25.001Z,23008
2019-06-27T10:54:34.733Z,23200
2019-06-27T10:55:44.457Z,23392
2019-06-27T10:56:54.204Z,23552
2019-06-27T10:58:04.187Z,23904
2019-06-27T10:59:14.165Z,24256
2019-06-27T11:00:24.163Z,24576
2019-06-27T11:01:33.884Z,24896
2019-06-27T11:02:43.090Z,25600
2019-06-27T11:03:53.062Z,28448
2019-06-27T11:05:03.049Z,33440
2019-06-27T11:06:12.505Z,36192
2019-06-27T11:07:22.206Z,36512
2019-06-27T11:08:32.231Z,37536
2019-06-27T11:09:41.957Z,37728
2019-06-27T11:10:51.977Z,38624
2019-06-27T11:12:01.698Z,38400
2019-06-27T11:13:11.677Z,37760
2019-06-27T11:14:24.050Z,39008
2019-06-27T11:15:33.806Z,39968
2019-06-27T11:16:43.521Z,40480
2019-06-27T11:17:53.041Z,41888
2019-06-27T11:19:02.777Z,43584
2019-06-27T11:20:15.248Z,43648
2019-06-27T11:21:25.483Z,41760
2019-06-27T11:22:35.483Z,41632
2019-06-27T11:23:45.527Z,43360
2019-06-27T11:24:55.499Z,44928
2019-06-27T11:26:08.399Z,45728
2019-06-27T11:27:19.430Z,46496
2019-06-27T11:28:29.171Z,46688
2019-06-27T11:29:38.903Z,46208
2019-06-27T11:30:48.628Z,45728
2019-06-27T11:31:58.710Z,45632
2019-06-27T11:33:08.765Z,47360
2019-06-27T11:34:21.781Z,48448
2019-06-27T11:35:31.054Z,49088
2019-06-27T11:36:41.013Z,49184
2019-06-27T11:37:53.974Z,51296
2019-06-27T11:39:03.918Z,51520
2019-06-27T11:40:17.033Z,51296
2019-06-27T11:41:26.986Z,51040
2019-06-27T11:42:37.240Z,52320
2019-06-27T11:43:47.008Z,54400
2019-06-27T11:44:56.993Z,55360
2019-06-27T11:46:08.801Z,55104
2019-06-27T11:47:18.931Z,54624
2019-06-27T11:48:28.634Z,53440
2019-06-27T11:49:38.595Z,52384
2019-06-27T11:50:48.863Z,52768
2019-06-27T11:51:58.949Z,55008
2019-06-27T11:53:09.042Z,56000
2019-06-27T11:54:18.535Z,56576
2019-06-27T11:55:28.269Z,57312
2019-06-27T11:56:37.752Z,56512
2019-06-27T11:57:47.745Z,55456
2019-06-27T11:58:57.443Z,55104
2019-06-27T12:00:07.447Z,57056
2019-06-27T12:01:17.438Z,60768
2019-06-27T12:02:27.423Z,62592
2019-06-27T12:03:53.295Z,61952
2019-06-27T12:05:03.013Z,61440
2019-06-27T12:06:12.974Z,60032
2019-06-27T12:07:22.699Z,59648
2019-06-27T12:08:32.179Z,62080
2019-06-27T12:09:42.179Z,64800
2019-06-27T12:10:52.172Z,65120
2019-06-27T12:12:01.920Z,64096
2019-06-27T12:13:11.694Z,63136
2019-06-27T12:14:21.663Z,64352
2019-06-27T12:15:31.734Z,66304
2019-06-27T12:16:41.734Z,67296
2019-06-27T12:17:51.471Z,67424
2019-06-27T12:19:01.463Z,68160
2019-06-27T12:20:11.435Z,68704
2019-06-27T12:21:21.183Z,70688
2019-06-27T12:22:30.904Z,70784
2019-06-27T12:23:40.885Z,70240
2019-06-27T12:24:50.620Z,67360
2019-06-27T12:26:00.109Z,67968
2019-06-27T12:27:09.860Z,67968
2019-06-27T12:28:19.337Z,71360
2019-06-27T12:29:29.315Z,75360
2019-06-27T12:30:39.316Z,74528
2019-06-27T12:31:51.652Z,72416
2019-06-27T12:33:01.775Z,74112
2019-06-27T12:34:14.514Z,71584
2019-06-27T12:35:24.516Z,71616
2019-06-27T12:36:34.515Z,73600
2019-06-27T12:37:46.955Z,74592
2019-06-27T12:38:56.672Z,75872
2019-06-27T12:40:06.396Z,75744
2019-06-27T12:41:16.396Z,76224
2019-06-27T12:42:39.617Z,76224
2019-06-27T12:43:49.600Z,76032
2019-06-27T12:44:59.569Z,76544
2019-06-27T12:46:09.021Z,75680
2019-06-27T12:47:18.982Z,77536
2019-06-27T12:48:28.691Z,77952
2019-06-27T12:50:07.271Z,78304
2019-06-27T12:51:17.506Z,79200
2019-06-27T12:52:27.480Z,78784
2019-06-27T12:53:37.452Z,76384
2019-06-27T12:54:47.526Z,76576
2019-06-27T12:55:57.354Z,77728
2019-06-27T12:57:07.323Z,77696
2019-06-27T12:58:17.069Z,79264
2019-06-27T12:59:27.070Z,80832
2019-06-27T13:00:37.175Z,83424
2019-06-27T13:01:47.153Z,81024
2019-06-27T13:02:57.224Z,82016
2019-06-27T13:04:22.172Z,83008
2019-06-27T13:05:33.211Z,80224
2019-06-27T13:06:42.915Z,80640
2019-06-27T13:07:52.913Z,79904
2019-06-27T13:09:02.934Z,82400
2019-06-27T13:10:12.944Z,83360
2019-06-27T13:11:23.021Z,85280
2019-06-27T13:12:32.987Z,85440
2019-06-27T13:13:42.957Z,84352
2019-06-27T13:14:52.686Z,83712
2019-06-27T13:16:02.767Z,84448
2019-06-27T13:17:12.767Z,85376
2019-06-27T13:18:22.484Z,82304
2019-06-27T13:19:32.215Z,82592
2019-06-27T13:20:58.946Z,83104
2019-06-27T13:22:08.950Z,81312
2019-06-27T13:23:19.058Z,85472
2019-06-27T13:24:29.074Z,86688
2019-06-27T13:25:41.530Z,86976
2019-06-27T13:26:51.329Z,85824
2019-06-27T13:28:01.357Z,88000
2019-06-27T13:29:11.329Z,84800
2019-06-27T13:30:21.049Z,87360
2019-06-27T13:31:31.025Z,83840
2019-06-27T13:32:41.032Z,87296
2019-06-27T13:33:51.080Z,88160
2019-06-27T13:35:01.065Z,88128
2019-06-27T13:36:10.883Z,86176
2019-06-27T13:37:21.110Z,89920
2019-06-27T13:38:31.106Z,88416
2019-06-27T13:39:40.901Z,88736
2019-06-27T13:40:50.878Z,87584
2019-06-27T13:42:00.143Z,87744
2019-06-27T13:43:09.870Z,88480
2019-06-27T13:44:19.583Z,90880
2019-06-27T13:45:33.611Z,90880
2019-06-27T13:46:43.382Z,92864
2019-06-27T13:47:53.429Z,92384
2019-06-27T13:49:03.146Z,92896
2019-06-27T13:50:12.850Z,91872
2019-06-27T13:51:22.808Z,90976
2019-06-27T13:52:32.302Z,91136
2019-06-27T13:53:42.279Z,88864
2019-06-27T13:54:52.239Z,88096
2019-06-27T13:56:02.265Z,90368
2019-06-27T13:57:12.430Z,88128
2019-06-27T13:58:22.142Z,90432
2019-06-27T13:59:31.857Z,90912
2019-06-27T14:00:41.916Z,89216
2019-06-27T14:01:51.904Z,94144
2019-06-27T14:03:01.662Z,91872
2019-06-27T14:04:11.638Z,94720
2019-06-27T14:05:21.606Z,86464
2019-06-27T14:06:31.590Z,92160
2019-06-27T14:07:41.615Z,94624
2019-06-27T14:08:51.642Z,94848
2019-06-27T14:10:04.821Z,88768
2019-06-27T14:11:14.544Z,91584
2019-06-27T14:12:24.274Z,90112
2019-06-27T14:13:34.017Z,88256
2019-06-27T14:15:01.124Z,95424
2019-06-27T14:16:12.948Z,89472
2019-06-27T14:17:22.972Z,92032
2019-06-27T14:18:32.979Z,94048
2019-06-27T14:19:42.750Z,95424
2019-06-27T14:20:52.718Z,90048
2019-06-27T14:22:05.838Z,90432
2019-06-27T14:23:15.803Z,86464
2019-06-27T14:24:25.855Z,87712
2019-06-27T14:25:35.828Z,91264
2019-06-27T14:26:45.286Z,89568
2019-06-27T14:27:54.742Z,92704
2019-06-27T14:29:04.725Z,87456
2019-06-27T14:30:14.696Z,92576
2019-06-27T14:31:24.650Z,91744
2019-06-27T14:32:34.375Z,93632
2019-06-27T14:33:44.104Z,93408
2019-06-27T14:34:53.836Z,90464
2019-06-27T14:36:21.393Z,95712
2019-06-27T14:37:31.116Z,93632
2019-06-27T14:38:41.121Z,94048
2019-06-27T14:39:50.859Z,94688
2019-06-27T14:41:03.716Z,91328
2019-06-27T14:42:13.451Z,97152
2019-06-27T14:43:23.468Z,90080
2019-06-27T14:44:32.926Z,89568
2019-06-27T14:45:42.973Z,90176
2019-06-27T14:46:52.954Z,92768
2019-06-27T14:48:02.843Z,92224
2019-06-27T14:49:12.843Z,93792
2019-06-27T14:50:22.558Z,95904
2019-06-27T14:51:32.259Z,89856
2019-06-27T14:52:42.467Z,94624
2019-06-27T14:53:52.183Z,91936
2019-06-27T14:55:02.171Z,90784
2019-06-27T14:56:11.904Z,90688
2019-06-27T14:57:21.393Z,88256
2019-06-27T14:58:33.474Z,84384
2019-06-27T14:59:43.099Z,89696
2019-06-27T15:00:52.822Z,89472
2019-06-27T15:02:02.847Z,92800
2019-06-27T15:03:12.809Z,89440
2019-06-27T15:04:22.574Z,89280
2019-06-27T15:05:40.125Z,88608
2019-06-27T15:06:50.193Z,90368
2019-06-27T15:07:59.913Z,87200
2019-06-27T15:09:09.991Z,91008
2019-06-27T15:10:20.079Z,86784
2019-06-27T15:11:29.826Z,87008
2019-06-27T15:12:58.239Z,87360
2019-06-27T15:14:08.013Z,87072
2019-06-27T15:15:17.752Z,86368
2019-06-27T15:16:27.732Z,84128
2019-06-27T15:17:37.820Z,86496
2019-06-27T15:18:47.786Z,84640
2019-06-27T15:19:59.439Z,85376
2019-06-27T15:21:09.578Z,84544
2019-06-27T15:22:19.714Z,81952
2019-06-27T15:23:31.651Z,84512
2019-06-27T15:24:41.657Z,82624
2019-06-27T15:25:51.640Z,84800
2019-06-27T15:27:01.618Z,81600
2019-06-27T15:28:11.364Z,81600
2019-06-27T15:29:21.085Z,82688
2019-06-27T15:30:31.045Z,78720
2019-06-27T15:31:40.791Z,80448
2019-06-27T15:32:50.541Z,78592
2019-06-27T15:34:00.289Z,78560
2019-06-27T15:35:10.289Z,77184
2019-06-27T15:36:20.067Z,75936
2019-06-27T15:37:29.809Z,73600